首页
METAR-TAF:

METAR-TAF

机场 :

North Myrtle Beach, 南卡罗来纳州, 美国

纬度: 33-48-42N, 经度: 078-43-26W, 海拔: 10米

当前天气观测

该预报发布于38分钟前的18:53 UTC
风速11节,风向
温度 27°C
湿度 70%
气压 1024 hPa
能見度: 16.1公里
天空无云

METAR: KCRE 231853Z 19011KT 10SM CLR 27/21 A3023 RMK AO1 SLP236 T02720206

时间: 15:31 (19:31 UTC)

预报

该预报发布于2小时和6分钟前的17:25 UTC
预报有效从23日的 18点(UTC)到 24日的 18点(UTC)
风速11节,风向
能見度: 10公里
天空无云
从 24日的 0200点(UTC)
风速9节,风向南转西南
能見度: 10公里
少量云层高于15000英尺
从 24日的 1400点(UTC)
风速12节,风向西
能見度: 10公里
天空无云

TAF: KCRE 231725Z 2318/2418 17011KT P6SM SKC FM240200 20009KT P6SM FEW150 FM241400 27012KT P6SM SKC

超过4000个机场的气象观测和天气预报(METAR&TAF报告)。

可查询的气象台以黄色和红色小点在地图上表示。

将鼠标移到小点上方,可查看气象台名称。

然后点击查看天气观测和预报。

如需切换地图:点击带黑十字的绿色按钮放大地图;点击带横线的绿色按钮缩小地图;或者点击绿色箭头查看邻近地区的地图。


METAR-TAF: